Fairlee, Vermont
Current Conditions -  °F | °C
As of 10:09 AM on Wednesday 22 Oct 2014 (Local Time) from KLEB Reporting Station
Overcast Overcast  
Wind Chill: 50°   Ceiling: 2600
Heat Index: 50°   Visibility: 10mi
Dew Point: 44°   Wind: 8mph
Humidity: 80%   Direction: 10°N
Pressure: 30.13"   Gusts: NA
Location:  43.91°N, 72.14°W
Report Text: KLEB 221409Z 01007KT 10SM FEW007 OVC026 10/07 A3013 RMK AO2 T01000067
Loading
Personal Weather Stations






























Interactive Weather Map
Tropical Storm Tracking
New forecast layout! Learn more

10-Day Weather Forecast

Advertisements
Track Severe Weather on mobile